CheckWX is a tool to help pilots better visualize weather data.  It is not intended as a substitute for an official pre-flight weather briefing.

10:57:33 UTC

KVBW METAR
Bridgewater Airpark
Bridgewater, Virginia, USA
Current

23 mins ago

KVBW 171035Z AUTO 00000KT 10SM BKN090 20/18 A3006 RMK AO1 T01950175
Observed
Sep-17 @ 10:35 UTC
Visibility
10 SM
Flight Rules
VFR
Cloud Levels
  • Broken at 9,000' AGL
Temperature
20°C / 68°F
Dewpoint
18°C / 64°F
Humidity
88%
Altimeter
30.06" Hg
Pressure
1017.92 hPa
Previous

43 mins ago

KVBW 171015Z AUTO 00000KT 10SM SCT065 OVC085 20/18 A3005 RMK AO1 T01970175
Observed
Sep-17 @ 10:15 UTC
Visibility
10 SM
Flight Rules
VFR
Cloud Levels
  • Scattered at 6,500' AGL
  • Overcast at 8,500' AGL
Temperature
20°C / 68°F
Dewpoint
18°C / 64°F
Humidity
88%
Altimeter
30.05" Hg
Pressure
1017.62 hPa
Previous

1 hour ago

KVBW 170955Z AUTO 00000KT 10SM SCT065 OVC085 19/18 A3004 RMK AO1 T01880177
Observed
Sep-17 @ 09:55 UTC
Visibility
10 SM
Flight Rules
VFR
Cloud Levels
  • Scattered at 6,500' AGL
  • Overcast at 8,500' AGL
Temperature
19°C / 66°F
Dewpoint
18°C / 64°F
Humidity
94%
Altimeter
30.04" Hg
Pressure
1017.32 hPa